createdAt,value
2023-06-04T00:00:50.262Z,12.11
2023-06-04T00:03:21.145Z,12.05
2023-06-04T00:05:53.734Z,11.93
2023-06-04T00:08:21.840Z,11.91
2023-06-04T00:10:51.545Z,11.88
2023-06-04T00:13:27.617Z,11.81
2023-06-04T00:15:58.594Z,11.78
2023-06-04T00:18:32.858Z,11.71
2023-06-04T00:21:01.373Z,11.64
2023-06-04T00:26:11.730Z,11.55
2023-06-04T00:28:42.020Z,11.50
2023-06-04T00:31:11.546Z,11.42
2023-06-04T00:33:42.566Z,11.39
2023-06-04T00:36:10.724Z,11.36
2023-06-04T00:38:39.864Z,11.33
2023-06-04T00:41:08.085Z,11.33
2023-06-04T00:43:36.978Z,11.25
2023-06-04T00:46:06.868Z,11.22
2023-06-04T00:48:39.993Z,11.15
2023-06-04T00:51:08.421Z,11.15
2023-06-04T00:53:36.773Z,11.08
2023-06-04T00:56:07.715Z,11.04
2023-06-04T00:58:40.399Z,11.00
2023-06-04T01:01:36.194Z,11.00
2023-06-04T01:04:06.155Z,10.97
2023-06-04T01:06:56.226Z,10.91
2023-06-04T01:09:25.940Z,10.87
2023-06-04T01:11:54.292Z,10.85
2023-06-04T01:14:25.568Z,10.84
2023-06-04T01:17:20.682Z,10.78
2023-06-04T01:20:13.006Z,10.71
2023-06-04T01:22:48.861Z,10.68
2023-06-04T01:25:31.030Z,10.66
2023-06-04T01:28:02.226Z,10.64
2023-06-04T01:30:44.126Z,10.60
2023-06-04T01:33:13.697Z,10.56
2023-06-04T01:35:41.887Z,10.53
2023-06-04T01:38:11.289Z,10.46
2023-06-04T01:40:45.115Z,10.39
2023-06-04T01:43:15.587Z,10.40
2023-06-04T01:45:43.587Z,10.39
2023-06-04T01:48:11.742Z,10.38
2023-06-04T01:50:40.654Z,10.35
2023-06-04T01:53:08.662Z,10.32
2023-06-04T01:55:38.951Z,10.30
2023-06-04T01:58:08.398Z,10.29
2023-06-04T02:00:36.597Z,10.23
2023-06-04T02:03:04.750Z,10.26
2023-06-04T02:05:33.468Z,10.22
2023-06-04T02:08:03.104Z,10.21
2023-06-04T02:10:31.585Z,10.21
2023-06-04T02:13:03.717Z,10.12
2023-06-04T02:15:33.266Z,10.13
2023-06-04T02:18:22.202Z,10.11
2023-06-04T02:20:51.442Z,10.08
2023-06-04T02:23:20.648Z,10.06
2023-06-04T02:25:50.700Z,10.06
2023-06-04T02:28:21.891Z,10.01
2023-06-04T02:30:50.112Z,9.98
2023-06-04T02:33:18.824Z,9.97
2023-06-04T02:35:46.911Z,9.95
2023-06-04T02:38:14.959Z,9.91
2023-06-04T02:40:45.139Z,9.90
2023-06-04T02:43:15.115Z,9.84
2023-06-04T02:45:43.321Z,9.84
2023-06-04T02:48:11.408Z,9.81
2023-06-04T02:50:40.442Z,9.80
2023-06-04T02:53:08.602Z,9.77
2023-06-04T02:55:37.240Z,9.77
2023-06-04T02:58:05.253Z,9.73
2023-06-04T03:00:33.772Z,9.70
2023-06-04T03:03:04.616Z,9.69
2023-06-04T03:05:34.287Z,9.67
2023-06-04T03:08:07.473Z,9.64
2023-06-04T03:10:35.487Z,9.61
2023-06-04T03:13:04.211Z,9.61
2023-06-04T03:15:32.375Z,9.57
2023-06-04T03:18:00.592Z,9.57
2023-06-04T03:20:28.645Z,9.56
2023-06-04T03:22:56.716Z,9.57
2023-06-04T03:25:24.736Z,9.53
2023-06-04T03:27:52.768Z,9.51
2023-06-04T03:30:21.033Z,9.53
2023-06-04T03:32:59.817Z,9.54
2023-06-04T03:35:28.050Z,9.54
2023-06-04T03:37:56.329Z,9.57
2023-06-04T03:40:24.946Z,9.63
2023-06-04T03:42:53.610Z,9.66
2023-06-04T03:45:26.313Z,9.66
2023-06-04T03:47:54.897Z,9.70
2023-06-04T03:50:24.034Z,9.71
2023-06-04T03:52:53.870Z,9.71
2023-06-04T03:55:21.960Z,9.75
2023-06-04T03:57:51.523Z,9.80
2023-06-04T04:00:21.392Z,9.90
2023-06-04T04:02:52.660Z,9.90
2023-06-04T04:05:27.510Z,10.21
2023-06-04T04:07:56.110Z,11.00
2023-06-04T04:10:27.537Z,11.64
2023-06-04T04:12:56.288Z,12.24
2023-06-04T04:15:24.720Z,12.60
2023-06-04T04:17:54.913Z,12.77
2023-06-04T04:20:23.751Z,13.15
2023-06-04T04:22:57.210Z,13.26
2023-06-04T04:25:26.404Z,13.57
2023-06-04T04:27:57.549Z,13.77
2023-06-04T04:30:27.219Z,14.30
2023-06-04T04:32:57.449Z,14.57
2023-06-04T04:35:33.563Z,14.72
2023-06-04T04:38:04.430Z,14.63
2023-06-04T04:40:37.287Z,14.91
2023-06-04T04:43:07.653Z,15.18
2023-06-04T04:45:37.189Z,15.49
2023-06-04T04:48:07.697Z,16.05
2023-06-04T04:50:36.330Z,16.08
2023-06-04T04:53:05.676Z,16.10
2023-06-04T04:55:35.959Z,16.53
2023-06-04T04:58:04.751Z,16.42
2023-06-04T05:00:38.574Z,16.74
2023-06-04T05:05:49.123Z,16.94
2023-06-04T05:08:17.348Z,16.80
2023-06-04T05:10:45.794Z,17.01
2023-06-04T05:13:14.985Z,16.77
2023-06-04T05:15:50.321Z,17.14
2023-06-04T05:18:30.287Z,17.15
2023-06-04T05:23:53.721Z,17.38
2023-06-04T05:26:33.082Z,17.59
2023-06-04T05:29:07.252Z,17.76
2023-06-04T05:31:41.122Z,18.10
2023-06-04T05:34:17.868Z,17.89
2023-06-04T05:36:47.387Z,18.07
2023-06-04T05:39:16.273Z,18.29
2023-06-04T05:41:53.979Z,18.59
2023-06-04T05:44:50.198Z,18.67
2023-06-04T05:47:24.739Z,18.97
2023-06-04T05:49:56.092Z,19.06
2023-06-04T05:52:25.071Z,18.31
2023-06-04T05:54:53.637Z,18.76
2023-06-04T05:57:25.256Z,18.87
2023-06-04T05:59:55.833Z,18.77
2023-06-04T06:02:24.304Z,18.56
2023-06-04T06:04:55.769Z,18.49
2023-06-04T06:07:24.139Z,18.42
2023-06-04T06:09:52.430Z,18.89
2023-06-04T06:12:23.511Z,19.03
2023-06-04T06:14:51.881Z,19.38
2023-06-04T06:17:21.609Z,19.61
2023-06-04T06:19:51.759Z,19.52
2023-06-04T06:22:21.017Z,19.61
2023-06-04T06:24:52.467Z,19.69
2023-06-04T06:27:20.807Z,19.69
2023-06-04T06:29:49.019Z,19.46
2023-06-04T06:32:24.623Z,19.07
2023-06-04T06:34:53.296Z,19.59
2023-06-04T06:37:25.934Z,19.38
2023-06-04T06:39:54.080Z,19.39
2023-06-04T06:42:25.413Z,19.91
2023-06-04T06:44:54.857Z,19.83
2023-06-04T06:47:23.091Z,19.83
2023-06-04T06:49:50.969Z,19.51
2023-06-04T06:52:22.825Z,19.70
2023-06-04T06:54:50.828Z,19.35
2023-06-04T06:57:19.057Z,19.66
2023-06-04T06:59:48.405Z,20.01
2023-06-04T07:02:16.800Z,20.31
2023-06-04T07:04:45.319Z,20.63
2023-06-04T07:07:13.905Z,20.65
2023-06-04T07:09:43.144Z,20.27
2023-06-04T07:12:11.691Z,20.13
2023-06-04T07:14:39.862Z,19.93
2023-06-04T07:17:09.100Z,19.66
2023-06-04T07:19:37.296Z,19.61
2023-06-04T07:22:06.222Z,19.90
2023-06-04T07:24:34.640Z,20.66
2023-06-04T07:27:03.417Z,20.82
2023-06-04T07:29:46.410Z,20.80
2023-06-04T07:32:37.176Z,20.57
2023-06-04T07:35:15.741Z,20.75
2023-06-04T07:37:50.341Z,20.68
2023-06-04T07:40:26.028Z,20.82
2023-06-04T07:43:03.859Z,20.24
2023-06-04T07:45:45.334Z,20.24
2023-06-04T07:48:16.595Z,20.20
2023-06-04T07:50:46.585Z,20.84
2023-06-04T07:56:03.016Z,20.80
2023-06-04T07:58:48.253Z,20.93
2023-06-04T08:01:22.380Z,20.82
2023-06-04T08:04:04.148Z,21.27
2023-06-04T08:06:32.444Z,21.59
2023-06-04T08:09:00.410Z,21.35
2023-06-04T08:11:28.627Z,21.12
2023-06-04T08:13:56.682Z,20.93
2023-06-04T08:16:24.720Z,20.75
2023-06-04T08:18:52.728Z,20.65
2023-06-04T08:21:28.286Z,20.89
2023-06-04T08:23:57.198Z,20.65
2023-06-04T08:26:28.209Z,20.57
2023-06-04T08:29:04.157Z,20.65
2023-06-04T08:31:35.505Z,20.84
2023-06-04T08:34:06.486Z,20.71
2023-06-04T08:36:37.591Z,20.51
2023-06-04T08:39:05.868Z,20.34
2023-06-04T08:41:45.389Z,20.17
2023-06-04T08:44:13.929Z,19.94
2023-06-04T08:46:45.564Z,20.34
2023-06-04T08:49:14.952Z,20.11
2023-06-04T08:51:44.649Z,20.38
2023-06-04T08:54:14.533Z,20.79
2023-06-04T08:56:49.644Z,21.01
2023-06-04T08:59:18.232Z,20.71
2023-06-04T09:01:47.779Z,20.72
2023-06-04T09:04:17.262Z,20.76
2023-06-04T09:06:46.479Z,20.72
2023-06-04T09:09:28.534Z,20.44
2023-06-04T09:11:58.727Z,20.73
2023-06-04T09:14:29.447Z,20.99
2023-06-04T09:17:00.799Z,20.66
2023-06-04T09:19:33.174Z,20.75
2023-06-04T09:22:03.901Z,21.00
2023-06-04T09:24:55.957Z,21.11
2023-06-04T09:27:26.266Z,21.21
2023-06-04T09:29:56.321Z,21.25
2023-06-04T09:32:30.347Z,20.80
2023-06-04T09:35:11.847Z,20.77
2023-06-04T09:37:41.560Z,21.04
2023-06-04T09:40:11.004Z,21.21
2023-06-04T09:42:55.243Z,21.11
2023-06-04T09:45:33.668Z,21.12
2023-06-04T09:48:02.636Z,21.24
2023-06-04T09:50:35.219Z,21.14
2023-06-04T09:53:13.673Z,21.63
2023-06-04T09:55:44.773Z,21.62
2023-06-04T09:58:16.420Z,21.24
2023-06-04T10:00:47.227Z,21.21
2023-06-04T10:03:18.864Z,21.44
2023-06-04T10:05:47.006Z,21.92
2023-06-04T10:08:18.369Z,21.69
2023-06-04T10:10:47.893Z,21.80
2023-06-04T10:13:20.310Z,21.72
2023-06-04T10:15:49.327Z,21.62
2023-06-04T10:18:20.208Z,21.55
2023-06-04T10:20:48.654Z,21.85
2023-06-04T10:23:21.665Z,21.71
2023-06-04T10:25:55.436Z,21.58
2023-06-04T10:28:25.316Z,21.69
2023-06-04T10:30:55.972Z,22.03
2023-06-04T10:33:27.570Z,21.61
2023-06-04T10:35:59.686Z,21.86
2023-06-04T10:38:33.117Z,21.94
2023-06-04T10:41:46.376Z,21.80
2023-06-04T10:44:16.227Z,21.73
2023-06-04T10:46:47.463Z,21.72
2023-06-04T10:49:16.388Z,21.93
2023-06-04T10:51:45.168Z,22.10
2023-06-04T10:54:27.749Z,22.01
2023-06-04T10:56:56.258Z,22.10
2023-06-04T10:59:26.922Z,22.17
2023-06-04T11:02:14.208Z,22.40
2023-06-04T11:04:44.043Z,22.30
2023-06-04T11:07:13.670Z,22.22
2023-06-04T11:09:53.593Z,22.17
2023-06-04T11:12:21.973Z,22.20
2023-06-04T11:14:57.685Z,22.37
2023-06-04T11:17:26.160Z,22.37
2023-06-04T11:20:01.079Z,22.69
2023-06-04T11:22:30.037Z,22.21
2023-06-04T11:25:04.559Z,22.24
2023-06-04T11:27:37.234Z,22.48
2023-06-04T11:30:10.042Z,22.38
2023-06-04T11:32:40.929Z,22.51
2023-06-04T11:35:41.231Z,22.49
2023-06-04T11:38:16.937Z,22.49
2023-06-04T11:40:46.785Z,22.68
2023-06-04T11:43:18.470Z,22.45
2023-06-04T11:45:46.941Z,22.31
2023-06-04T11:48:16.469Z,22.27
2023-06-04T11:50:45.182Z,22.34
2023-06-04T11:53:16.882Z,22.17
2023-06-04T11:55:46.711Z,22.40
2023-06-04T11:58:20.788Z,22.31
2023-06-04T12:00:50.287Z,22.25
2023-06-04T12:03:20.528Z,22.01
2023-06-04T12:05:49.579Z,22.06
2023-06-04T12:08:18.145Z,22.37
2023-06-04T12:10:46.667Z,22.54
2023-06-04T12:13:15.411Z,22.68
2023-06-04T12:15:55.632Z,22.31
2023-06-04T12:18:34.986Z,22.59
2023-06-04T12:21:18.263Z,22.44
2023-06-04T12:23:48.647Z,22.48
2023-06-04T12:26:29.992Z,22.25
2023-06-04T12:29:16.738Z,22.48
2023-06-04T12:31:49.085Z,22.54
2023-06-04T12:34:19.977Z,22.62
2023-06-04T12:36:48.339Z,22.72
2023-06-04T12:39:16.804Z,22.58
2023-06-04T12:41:49.919Z,22.65
2023-06-04T12:44:18.308Z,22.48
2023-06-04T12:46:46.692Z,22.51
2023-06-04T12:49:16.695Z,22.48
2023-06-04T12:51:47.526Z,22.44
2023-06-04T12:54:15.860Z,22.66
2023-06-04T12:56:45.659Z,22.45
2023-06-04T12:59:14.564Z,22.51
2023-06-04T13:01:43.153Z,22.77
2023-06-04T13:04:11.435Z,22.75
2023-06-04T13:06:39.809Z,22.72
2023-06-04T13:09:10.574Z,22.75
2023-06-04T13:11:43.569Z,22.58
2023-06-04T13:14:12.323Z,22.55
2023-06-04T13:16:41.020Z,22.65
2023-06-04T13:19:10.103Z,22.54
2023-06-04T13:21:38.601Z,22.66
2023-06-04T13:24:12.262Z,22.68
2023-06-04T13:26:43.328Z,22.56
2023-06-04T13:29:11.785Z,22.52
2023-06-04T13:31:41.941Z,22.62
2023-06-04T13:34:26.271Z,22.61
2023-06-04T13:36:56.995Z,22.54
2023-06-04T13:39:27.571Z,22.77
2023-06-04T13:41:56.182Z,22.63
2023-06-04T13:44:27.528Z,22.69
2023-06-04T13:46:55.950Z,22.92
2023-06-04T13:49:24.531Z,22.92
2023-06-04T13:51:56.212Z,22.82
2023-06-04T13:54:27.397Z,22.71
2023-06-04T13:56:56.457Z,22.88
2023-06-04T13:59:25.334Z,22.86
2023-06-04T14:01:53.986Z,22.93
2023-06-04T14:04:22.611Z,23.13
2023-06-04T14:06:50.996Z,23.07
2023-06-04T14:09:21.390Z,23.03
2023-06-04T14:11:51.558Z,22.99
2023-06-04T14:14:20.174Z,22.76
2023-06-04T14:16:48.617Z,22.80
2023-06-04T14:19:17.033Z,22.86
2023-06-04T14:21:45.655Z,22.71
2023-06-04T14:24:14.246Z,22.79
2023-06-04T14:26:42.486Z,22.83
2023-06-04T14:29:11.003Z,22.86
2023-06-04T14:31:41.809Z,22.85
2023-06-04T14:34:10.243Z,22.80
2023-06-04T14:36:38.519Z,22.79
2023-06-04T14:39:11.820Z,22.86
2023-06-04T14:41:39.971Z,22.89
2023-06-04T14:44:08.149Z,22.88
2023-06-04T14:46:36.563Z,22.73
2023-06-04T14:49:06.999Z,22.68
2023-06-04T14:51:35.171Z,22.82
2023-06-04T14:54:03.477Z,22.76
2023-06-04T14:56:31.829Z,22.73
2023-06-04T14:59:00.016Z,22.71
2023-06-04T15:01:28.032Z,22.85
2023-06-04T15:03:56.614Z,22.97
2023-06-04T15:06:24.619Z,22.80
2023-06-04T15:08:53.087Z,23.04
2023-06-04T15:11:21.730Z,22.85
2023-06-04T15:13:50.041Z,22.93
2023-06-04T15:16:18.685Z,22.79
2023-06-04T15:18:47.595Z,22.80
2023-06-04T15:21:16.469Z,22.54
2023-06-04T15:23:47.298Z,22.61
2023-06-04T15:26:16.079Z,22.56
2023-06-04T15:28:44.411Z,22.44
2023-06-04T15:31:12.879Z,22.45
2023-06-04T15:33:41.287Z,22.44
2023-06-04T15:36:09.815Z,22.41
2023-06-04T15:38:38.123Z,22.55
2023-06-04T15:41:06.607Z,22.45
2023-06-04T15:43:37.169Z,22.65
2023-06-04T15:46:05.584Z,22.72
2023-06-04T15:48:33.883Z,22.58
2023-06-04T15:51:01.994Z,22.47
2023-06-04T15:53:30.594Z,22.41
2023-06-04T15:55:58.777Z,22.18
2023-06-04T15:58:26.790Z,22.47
2023-06-04T16:00:54.770Z,22.44
2023-06-04T16:03:23.099Z,22.49
2023-06-04T16:05:54.446Z,22.51
2023-06-04T16:08:23.049Z,22.41
2023-06-04T16:10:52.106Z,22.28
2023-06-04T16:13:20.539Z,22.18
2023-06-04T16:15:48.878Z,22.21
2023-06-04T16:18:16.917Z,22.11
2023-06-04T16:20:44.902Z,22.13
2023-06-04T16:23:13.133Z,21.99
2023-06-04T16:25:41.818Z,22.04
2023-06-04T16:28:11.112Z,22.06
2023-06-04T16:30:39.924Z,22.11
2023-06-04T16:33:10.931Z,22.13
2023-06-04T16:35:40.127Z,22.03
2023-06-04T16:38:08.310Z,22.16
2023-06-04T16:40:36.698Z,22.01
2023-06-04T16:43:10.249Z,21.90
2023-06-04T16:45:38.704Z,21.99
2023-06-04T16:48:07.974Z,21.88
2023-06-04T16:50:42.243Z,21.73
2023-06-04T16:53:18.826Z,21.78
2023-06-04T16:55:47.317Z,21.83
2023-06-04T16:58:17.926Z,21.86
2023-06-04T17:00:50.358Z,21.92
2023-06-04T17:09:07.493Z,21.73
2023-06-04T17:11:38.461Z,21.65
2023-06-04T17:14:10.753Z,21.62
2023-06-04T17:16:44.212Z,21.46
2023-06-04T17:19:38.082Z,21.31
2023-06-04T17:22:07.216Z,21.24
2023-06-04T17:24:38.198Z,21.17
2023-06-04T17:27:12.423Z,21.04
2023-06-04T17:29:47.441Z,21.04
2023-06-04T17:32:45.404Z,20.79
2023-06-04T17:35:22.617Z,20.77
2023-06-04T17:38:05.654Z,20.71
2023-06-04T17:40:34.626Z,20.59
2023-06-04T17:43:39.577Z,20.46
2023-06-04T17:46:37.599Z,20.22
2023-06-04T17:49:43.385Z,20.11
2023-06-04T17:52:20.975Z,19.94
2023-06-04T17:55:06.134Z,20.01
2023-06-04T17:57:41.898Z,19.89
2023-06-04T18:00:32.566Z,19.83
2023-06-04T18:03:01.013Z,19.66
2023-06-04T18:05:29.793Z,19.65
2023-06-04T18:08:04.918Z,19.51
2023-06-04T18:10:47.403Z,19.39
2023-06-04T18:13:23.546Z,19.28
2023-06-04T18:15:56.414Z,19.27
2023-06-04T18:18:34.561Z,19.15
2023-06-04T18:21:08.989Z,19.10
2023-06-04T18:23:42.481Z,19.04
2023-06-04T18:26:11.597Z,18.93
2023-06-04T18:28:47.365Z,18.77
2023-06-04T18:31:24.697Z,18.60
2023-06-04T18:34:02.414Z,18.57
2023-06-04T18:39:33.278Z,18.38
2023-06-04T18:42:18.227Z,18.27
2023-06-04T18:45:09.002Z,18.18
2023-06-04T18:47:55.820Z,18.10
2023-06-04T18:50:38.827Z,17.94
2023-06-04T18:53:12.657Z,17.84
2023-06-04T18:55:44.494Z,17.77
2023-06-04T18:58:18.892Z,17.70
2023-06-04T19:00:47.399Z,17.62
2023-06-04T19:03:16.452Z,17.55
2023-06-04T19:05:52.797Z,17.48
2023-06-04T19:08:21.067Z,17.36
2023-06-04T19:10:57.001Z,17.25
2023-06-04T19:13:36.070Z,17.15
2023-06-04T19:16:08.281Z,17.04
2023-06-04T19:18:43.236Z,16.95
2023-06-04T19:21:13.049Z,16.84
2023-06-04T19:23:41.803Z,16.80
2023-06-04T19:26:10.649Z,16.69
2023-06-04T19:28:42.139Z,16.62
2023-06-04T19:31:11.237Z,16.52
2023-06-04T19:33:42.438Z,16.46
2023-06-04T19:36:11.275Z,16.33
2023-06-04T19:38:43.039Z,16.29
2023-06-04T19:41:12.608Z,16.22
2023-06-04T19:43:42.031Z,16.14
2023-06-04T19:46:11.596Z,16.04
2023-06-04T19:48:41.542Z,15.93
2023-06-04T19:51:10.249Z,15.86
2023-06-04T19:53:41.064Z,15.79
2023-06-04T19:56:10.817Z,15.73
2023-06-04T19:58:39.302Z,15.65
2023-06-04T20:01:07.777Z,15.55
2023-06-04T20:03:36.137Z,15.45
2023-06-04T20:06:06.581Z,15.36
2023-06-04T20:08:36.693Z,15.28
2023-06-04T20:11:07.990Z,15.22
2023-06-04T20:13:40.935Z,15.17
2023-06-04T20:16:09.801Z,15.08
2023-06-04T20:18:38.871Z,15.02
2023-06-04T20:21:10.688Z,14.95
2023-06-04T20:23:42.801Z,14.90
2023-06-04T20:26:12.662Z,14.81
2023-06-04T20:28:41.648Z,14.74
2023-06-04T20:31:09.953Z,14.67
2023-06-04T20:33:42.238Z,14.63
2023-06-04T20:36:12.415Z,14.56
2023-06-04T20:38:41.014Z,14.49
2023-06-04T20:41:10.022Z,14.43
2023-06-04T20:43:57.768Z,14.35
2023-06-04T20:46:28.979Z,14.26
2023-06-04T20:48:58.024Z,14.22
2023-06-04T20:51:27.797Z,14.14
2023-06-04T20:53:59.362Z,14.07
2023-06-04T20:56:28.712Z,14.05
2023-06-04T20:58:56.843Z,13.98
2023-06-04T21:01:25.036Z,13.90
2023-06-04T21:03:53.465Z,13.81
2023-06-04T21:06:21.591Z,13.76
2023-06-04T21:08:49.616Z,13.73
2023-06-04T21:11:18.027Z,13.66
2023-06-04T21:13:46.078Z,13.57
2023-06-04T21:16:15.445Z,13.52
2023-06-04T21:18:54.031Z,13.46
2023-06-04T21:21:22.527Z,13.39
2023-06-04T21:23:50.839Z,13.35
2023-06-04T21:26:21.637Z,13.29
2023-06-04T21:28:58.210Z,13.28
2023-06-04T21:31:38.053Z,13.19
2023-06-04T21:34:11.037Z,13.14
2023-06-04T21:36:42.445Z,13.12
2023-06-04T21:39:10.473Z,13.10
2023-06-04T21:41:38.429Z,13.04
2023-06-04T21:44:07.018Z,13.01
2023-06-04T21:46:37.190Z,12.95
2023-06-04T21:49:05.074Z,12.87
2023-06-04T21:51:33.043Z,12.84
2023-06-04T21:54:00.977Z,12.80
2023-06-04T21:56:28.953Z,12.73
2023-06-04T21:58:57.273Z,12.68
2023-06-04T22:01:25.415Z,12.63
2023-06-04T22:03:53.441Z,12.61
2023-06-04T22:06:21.439Z,12.55
2023-06-04T22:08:51.893Z,12.53
2023-06-04T22:11:20.108Z,12.47
2023-06-04T22:13:49.055Z,12.43
2023-06-04T22:16:17.352Z,12.40
2023-06-04T22:18:52.816Z,12.35
2023-06-04T22:21:22.109Z,12.29
2023-06-04T22:23:50.982Z,12.22
2023-06-04T22:26:33.141Z,12.18
2023-06-04T22:29:05.545Z,12.18
2023-06-04T22:31:34.060Z,12.11
2023-06-04T22:34:02.308Z,12.05
2023-06-04T22:36:30.342Z,11.99
2023-06-04T22:38:58.347Z,11.95
2023-06-04T22:41:27.669Z,11.91
2023-06-04T22:43:55.707Z,11.88
2023-06-04T22:46:23.698Z,11.87
2023-06-04T22:48:52.360Z,11.78
2023-06-04T22:51:22.136Z,11.76
2023-06-04T22:53:51.573Z,11.73
2023-06-04T22:56:22.573Z,11.67
2023-06-04T22:58:50.744Z,11.63
2023-06-04T23:01:18.959Z,11.60
2023-06-04T23:03:47.141Z,11.57
2023-06-04T23:06:15.236Z,11.53
2023-06-04T23:08:46.504Z,11.52
2023-06-04T23:11:14.370Z,11.46
2023-06-04T23:13:43.394Z,11.46
2023-06-04T23:16:11.463Z,11.39
2023-06-04T23:18:39.439Z,11.38
2023-06-04T23:21:07.689Z,11.33
2023-06-04T23:23:35.910Z,11.28
2023-06-04T23:26:03.921Z,11.25
2023-06-04T23:28:31.785Z,11.23
2023-06-04T23:30:59.835Z,11.18
2023-06-04T23:33:27.888Z,11.15
2023-06-04T23:35:55.866Z,11.12
2023-06-04T23:38:23.881Z,11.10
2023-06-04T23:40:51.929Z,11.08
2023-06-04T23:43:20.057Z,11.00
2023-06-04T23:45:48.361Z,11.04
2023-06-04T23:48:17.759Z,10.98
2023-06-04T23:50:46.169Z,10.95
2023-06-04T23:53:14.429Z,10.97
2023-06-04T23:55:42.349Z,10.90
2023-06-04T23:58:10.441Z,10.87
